sensor_id;sensor_type;location;lat;lon;timestamp;pressure;altitude;pressure_sealevel;temperature;humidity
59873;BME280;50750;51.636;4.948;2022-11-15T00:00:55;100950.77;;;13.64;61.85
59873;BME280;50750;51.636;4.948;2022-11-15T00:03:24;100947.27;;;13.64;61.73
59873;BME280;50750;51.636;4.948;2022-11-15T00:05:51;100943.62;;;13.63;61.82
59873;BME280;50750;51.636;4.948;2022-11-15T00:08:18;100944.52;;;13.62;61.84
59873;BME280;50750;51.636;4.948;2022-11-15T00:11:01;100948.38;;;13.62;61.83
59873;BME280;50750;51.636;4.948;2022-11-15T00:13:29;100947.69;;;13.62;61.83
59873;BME280;50750;51.636;4.948;2022-11-15T00:15:57;100944.16;;;13.62;61.82
59873;BME280;50750;51.636;4.948;2022-11-15T00:18:25;100942.55;;;13.63;61.78
59873;BME280;50750;51.636;4.948;2022-11-15T00:20:51;100938.10;;;13.64;61.75
59873;BME280;50750;51.636;4.948;2022-11-15T00:23:18;100933.80;;;13.66;61.88
59873;BME280;50750;51.636;4.948;2022-11-15T00:25:44;100936.23;;;13.66;61.89
59873;BME280;50750;51.636;4.948;2022-11-15T00:28:11;100928.30;;;13.67;61.87
59873;BME280;50750;51.636;4.948;2022-11-15T00:30:38;100928.98;;;13.67;61.83
59873;BME280;50750;51.636;4.948;2022-11-15T00:33:05;100921.06;;;13.68;61.80
59873;BME280;50750;51.636;4.948;2022-11-15T00:35:34;100920.68;;;13.68;61.83
59873;BME280;50750;51.636;4.948;2022-11-15T00:38:01;100921.39;;;13.68;61.89
59873;BME280;50750;51.636;4.948;2022-11-15T00:40:29;100919.46;;;13.68;61.70
59873;BME280;50750;51.636;4.948;2022-11-15T00:42:57;100916.13;;;13.68;61.78
59873;BME280;50750;51.636;4.948;2022-11-15T00:45:24;100912.77;;;13.68;61.86
59873;BME280;50750;51.636;4.948;2022-11-15T00:47:51;100908.94;;;13.67;61.79
59873;BME280;50750;51.636;4.948;2022-11-15T00:50:18;100909.10;;;13.67;61.81
59873;BME280;50750;51.636;4.948;2022-11-15T00:52:45;100905.43;;;13.67;61.84
59873;BME280;50750;51.636;4.948;2022-11-15T00:55:18;100904.58;;;13.66;61.82
59873;BME280;50750;51.636;4.948;2022-11-15T00:57:46;100904.08;;;13.65;61.89
59873;BME280;50750;51.636;4.948;2022-11-15T01:00:13;100904.09;;;13.65;61.85
59873;BME280;50750;51.636;4.948;2022-11-15T01:02:39;100903.59;;;13.65;61.80
59873;BME280;50750;51.636;4.948;2022-11-15T01:05:07;100910.13;;;13.64;61.98
59873;BME280;50750;51.636;4.948;2022-11-15T01:07:34;100912.42;;;13.64;62.03
59873;BME280;50750;51.636;4.948;2022-11-15T01:10:00;100910.71;;;13.63;61.94
59873;BME280;50750;51.636;4.948;2022-11-15T01:12:27;100918.64;;;13.62;61.99
59873;BME280;50750;51.636;4.948;2022-11-15T01:14:54;100915.66;;;13.62;62.03
59873;BME280;50750;51.636;4.948;2022-11-15T01:17:20;100914.09;;;13.62;62.08
59873;BME280;50750;51.636;4.948;2022-11-15T01:19:47;100909.70;;;13.61;62.11
59873;BME280;50750;51.636;4.948;2022-11-15T01:22:13;100906.71;;;13.62;62.07
59873;BME280;50750;51.636;4.948;2022-11-15T01:24:40;100904.20;;;13.63;62.14
59873;BME280;50750;51.636;4.948;2022-11-15T01:27:07;100903.09;;;13.63;62.02
59873;BME280;50750;51.636;4.948;2022-11-15T01:29:33;100904.11;;;13.65;62.11
59873;BME280;50750;51.636;4.948;2022-11-15T01:32:00;100902.66;;;13.65;61.94
59873;BME280;50750;51.636;4.948;2022-11-15T01:34:27;100902.47;;;13.66;62.03
59873;BME280;50750;51.636;4.948;2022-11-15T01:36:53;100898.23;;;13.67;61.98
59873;BME280;50750;51.636;4.948;2022-11-15T01:39:20;100896.60;;;13.68;61.94
59873;BME280;50750;51.636;4.948;2022-11-15T01:41:46;100896.60;;;13.68;62.07
59873;BME280;50750;51.636;4.948;2022-11-15T01:44:52;100889.20;;;13.68;61.92
59873;BME280;50750;51.636;4.948;2022-11-15T01:47:36;100881.28;;;13.68;62.08
59873;BME280;50750;51.636;4.948;2022-11-15T01:50:08;100877.26;;;13.67;62.04
59873;BME280;50750;51.636;4.948;2022-11-15T01:52:37;100871.27;;;13.67;62.04
59873;BME280;50750;51.636;4.948;2022-11-15T01:57:46;100867.81;;;13.66;62.07
59873;BME280;50750;51.636;4.948;2022-11-15T02:00:14;100864.48;;;13.66;62.05
59873;BME280;50750;51.636;4.948;2022-11-15T02:02:41;100860.80;;;13.65;62.12
59873;BME280;50750;51.636;4.948;2022-11-15T02:05:09;100864.15;;;13.65;62.11
59873;BME280;50750;51.636;4.948;2022-11-15T02:07:36;100857.13;;;13.64;62.21
59873;BME280;50750;51.636;4.948;2022-11-15T02:10:07;100854.69;;;13.64;62.20
59873;BME280;50750;51.636;4.948;2022-11-15T02:12:34;100853.66;;;13.63;62.16
59873;BME280;50750;51.636;4.948;2022-11-15T02:15:03;100850.33;;;13.63;62.23
59873;BME280;50750;51.636;4.948;2022-11-15T02:17:53;100847.91;;;13.63;62.19
59873;BME280;50750;51.636;4.948;2022-11-15T02:20:46;100844.58;;;13.62;62.32
59873;BME280;50750;51.636;4.948;2022-11-15T02:37:07;100832.05;;;13.66;62.26
59873;BME280;50750;51.636;4.948;2022-11-15T02:39:51;100829.22;;;13.67;62.21
59873;BME280;50750;51.636;4.948;2022-11-15T02:42:28;100824.29;;;13.67;62.18
59873;BME280;50750;51.636;4.948;2022-11-15T02:45:21;100826.38;;;13.68;62.12
59873;BME280;50750;51.636;4.948;2022-11-15T02:47:51;100829.89;;;13.68;62.28
59873;BME280;50750;51.636;4.948;2022-11-15T02:50:25;100826.73;;;13.68;62.23
59873;BME280;50750;51.636;4.948;2022-11-15T02:52:53;100823.55;;;13.68;62.21
59873;BME280;50750;51.636;4.948;2022-11-15T02:55:38;100823.57;;;13.68;62.35
59873;BME280;50750;51.636;4.948;2022-11-15T03:03:59;100819.55;;;13.67;62.31
59873;BME280;50750;51.636;4.948;2022-11-15T03:11:46;100815.27;;;13.64;62.34
59873;BME280;50750;51.636;4.948;2022-11-15T03:14:22;100809.66;;;13.63;62.43
59873;BME280;50750;51.636;4.948;2022-11-15T03:19:38;100819.93;;;13.62;62.40
59873;BME280;50750;51.636;4.948;2022-11-15T03:22:09;100820.98;;;13.63;62.50
59873;BME280;50750;51.636;4.948;2022-11-15T03:24:38;100821.71;;;13.62;62.41
59873;BME280;50750;51.636;4.948;2022-11-15T03:27:06;100822.58;;;13.62;62.48
59873;BME280;50750;51.636;4.948;2022-11-15T03:29:39;100823.02;;;13.64;62.49
59873;BME280;50750;51.636;4.948;2022-11-15T03:32:12;100819.80;;;13.65;62.37
59873;BME280;50750;51.636;4.948;2022-11-15T03:35:12;100812.00;;;13.67;62.47
59873;BME280;50750;51.636;4.948;2022-11-15T03:40:10;100812.45;;;13.68;62.35
59873;BME280;50750;51.636;4.948;2022-11-15T03:42:52;100806.96;;;13.69;62.29
59873;BME280;50750;51.636;4.948;2022-11-15T03:45:29;100796.89;;;13.70;62.34
59873;BME280;50750;51.636;4.948;2022-11-15T03:48:02;100797.94;;;13.70;62.34
59873;BME280;50750;51.636;4.948;2022-11-15T03:50:31;100802.34;;;13.70;62.43
59873;BME280;50750;51.636;4.948;2022-11-15T03:52:58;100795.83;;;13.70;62.37
59873;BME280;50750;51.636;4.948;2022-11-15T03:55:25;100800.04;;;13.70;62.30
59873;BME280;50750;51.636;4.948;2022-11-15T03:57:55;100803.58;;;13.70;62.39
59873;BME280;50750;51.636;4.948;2022-11-15T04:00:23;100806.05;;;13.69;62.38
59873;BME280;50750;51.636;4.948;2022-11-15T04:02:49;100809.21;;;13.70;62.32
59873;BME280;50750;51.636;4.948;2022-11-15T04:05:16;100807.67;;;13.69;62.51
59873;BME280;50750;51.636;4.948;2022-11-15T04:07:43;100809.77;;;13.69;62.43
59873;BME280;50750;51.636;4.948;2022-11-15T04:10:10;100805.77;;;13.69;62.42
59873;BME280;50750;51.636;4.948;2022-11-15T04:12:42;100802.80;;;13.68;62.48
59873;BME280;50750;51.636;4.948;2022-11-15T04:15:21;100802.83;;;13.68;62.40
59873;BME280;50750;51.636;4.948;2022-11-15T04:17:53;100798.78;;;13.67;62.46
59873;BME280;50750;51.636;4.948;2022-11-15T04:23:17;100812.69;;;13.67;62.46
59873;BME280;50750;51.636;4.948;2022-11-15T04:26:09;100823.42;;;13.67;62.47
59873;BME280;50750;51.636;4.948;2022-11-15T04:28:37;100823.91;;;13.68;62.54
59873;BME280;50750;51.636;4.948;2022-11-15T04:31:23;100823.12;;;13.70;62.44
59873;BME280;50750;51.636;4.948;2022-11-15T04:33:49;100818.88;;;13.70;62.47
59873;BME280;50750;51.636;4.948;2022-11-15T04:36:16;100818.84;;;13.71;62.42
59873;BME280;50750;51.636;4.948;2022-11-15T04:39:02;100816.14;;;13.72;62.39
59873;BME280;50750;51.636;4.948;2022-11-15T04:41:28;100814.73;;;13.73;62.38
59873;BME280;50750;51.636;4.948;2022-11-15T04:43:55;100810.14;;;13.73;62.37
59873;BME280;50750;51.636;4.948;2022-11-15T04:46:22;100808.73;;;13.73;62.40
59873;BME280;50750;51.636;4.948;2022-11-15T04:48:50;100809.60;;;13.73;62.42
59873;BME280;50750;51.636;4.948;2022-11-15T04:51:17;100809.41;;;13.74;62.46
59873;BME280;50750;51.636;4.948;2022-11-15T04:53:44;100810.15;;;13.73;62.31
59873;BME280;50750;51.636;4.948;2022-11-15T04:56:11;100807.70;;;13.72;62.41
59873;BME280;50750;51.636;4.948;2022-11-15T04:58:37;100803.65;;;13.72;62.32
59873;BME280;50750;51.636;4.948;2022-11-15T05:01:12;100802.27;;;13.72;62.41
59873;BME280;50750;51.636;4.948;2022-11-15T05:03:42;100801.76;;;13.72;62.43
59873;BME280;50750;51.636;4.948;2022-11-15T05:06:28;100805.65;;;13.71;62.54
59873;BME280;50750;51.636;4.948;2022-11-15T05:08:55;100798.45;;;13.71;62.49
59873;BME280;50750;51.636;4.948;2022-11-15T05:11:22;100794.23;;;13.70;62.49
59873;BME280;50750;51.636;4.948;2022-11-15T05:13:49;100792.84;;;13.70;62.55
59873;BME280;50750;51.636;4.948;2022-11-15T05:16:16;100798.64;;;13.70;62.46
59873;BME280;50750;51.636;4.948;2022-11-15T05:18:43;100802.20;;;13.69;62.53
59873;BME280;50750;51.636;4.948;2022-11-15T05:21:11;100805.55;;;13.69;62.52
59873;BME280;50750;51.636;4.948;2022-11-15T05:23:39;100807.67;;;13.69;62.51
59873;BME280;50750;51.636;4.948;2022-11-15T05:26:07;100804.97;;;13.70;62.59
59873;BME280;50750;51.636;4.948;2022-11-15T05:28:35;100808.77;;;13.72;62.60
59873;BME280;50750;51.636;4.948;2022-11-15T05:31:08;100806.27;;;13.73;62.57
59873;BME280;50750;51.636;4.948;2022-11-15T05:33:38;100800.25;;;13.74;62.41
59873;BME280;50750;51.636;4.948;2022-11-15T05:36:13;100805.67;;;13.75;62.48
59873;BME280;50750;51.636;4.948;2022-11-15T05:38:44;100807.77;;;13.75;62.50
59873;BME280;50750;51.636;4.948;2022-11-15T05:41:12;100811.45;;;13.76;62.49
59873;BME280;50750;51.636;4.948;2022-11-15T05:43:39;100817.73;;;13.76;62.45
59873;BME280;50750;51.636;4.948;2022-11-15T05:46:07;100817.57;;;13.76;62.60
59873;BME280;50750;51.636;4.948;2022-11-15T05:48:35;100817.02;;;13.77;62.45
59873;BME280;50750;51.636;4.948;2022-11-15T05:51:03;100818.61;;;13.76;62.47
59873;BME280;50750;51.636;4.948;2022-11-15T05:53:31;100818.63;;;13.76;62.52
59873;BME280;50750;51.636;4.948;2022-11-15T05:55:58;100820.23;;;13.76;62.51
59873;BME280;50750;51.636;4.948;2022-11-15T05:58:24;100822.53;;;13.76;62.54
59873;BME280;50750;51.636;4.948;2022-11-15T06:00:51;100812.88;;;13.75;62.47
59873;BME280;50750;51.636;4.948;2022-11-15T06:03:17;100812.36;;;13.75;62.48
59873;BME280;50750;51.636;4.948;2022-11-15T06:05:44;100811.85;;;13.74;62.56
59873;BME280;50750;51.636;4.948;2022-11-15T06:08:10;100815.75;;;13.74;62.58
59873;BME280;50750;51.636;4.948;2022-11-15T06:10:37;100817.35;;;13.74;62.61
59873;BME280;50750;51.636;4.948;2022-11-15T06:13:04;100819.82;;;13.73;62.56
59873;BME280;50750;51.636;4.948;2022-11-15T06:15:32;100822.11;;;13.73;62.64
59873;BME280;50750;51.636;4.948;2022-11-15T06:18:00;100821.92;;;13.73;62.64
59873;BME280;50750;51.636;4.948;2022-11-15T06:20:28;100821.70;;;13.74;62.54
59873;BME280;50750;51.636;4.948;2022-11-15T06:23:05;100824.29;;;13.76;62.63
59873;BME280;50750;51.636;4.948;2022-11-15T06:25:31;100827.04;;;13.77;62.58
59873;BME280;50750;51.636;4.948;2022-11-15T06:27:59;100830.34;;;13.78;62.56
59873;BME280;50750;51.636;4.948;2022-11-15T06:30:26;100832.45;;;13.78;62.48
59873;BME280;50750;51.636;4.948;2022-11-15T06:33:01;100835.79;;;13.78;62.47
59873;BME280;50750;51.636;4.948;2022-11-15T06:35:28;100836.83;;;13.79;62.41
59873;BME280;50750;51.636;4.948;2022-11-15T06:37:56;100840.15;;;13.79;62.46
59873;BME280;50750;51.636;4.948;2022-11-15T06:40:27;100838.55;;;13.79;62.40
59873;BME280;50750;51.636;4.948;2022-11-15T06:42:58;100838.23;;;13.79;62.36
59873;BME280;50750;51.636;4.948;2022-11-15T06:45:26;100838.92;;;13.79;62.46
59873;BME280;50750;51.636;4.948;2022-11-15T06:47:53;100840.88;;;13.78;62.48
59873;BME280;50750;51.636;4.948;2022-11-15T06:50:20;100843.54;;;13.78;63.09
59873;BME280;50750;51.636;4.948;2022-11-15T06:52:46;100845.13;;;13.78;63.05
59873;BME280;50750;51.636;4.948;2022-11-15T06:55:13;100844.45;;;13.77;62.91
59873;BME280;50750;51.636;4.948;2022-11-15T06:57:47;100847.81;;;13.77;62.96
59873;BME280;50750;51.636;4.948;2022-11-15T07:00:15;100845.21;;;13.76;62.91
59873;BME280;50750;51.636;4.948;2022-11-15T07:02:42;100847.86;;;13.75;62.93
59873;BME280;50750;51.636;4.948;2022-11-15T07:05:10;100846.66;;;13.75;62.97
59873;BME280;50750;51.636;4.948;2022-11-15T07:07:36;100845.61;;;13.75;62.85
59873;BME280;50750;51.636;4.948;2022-11-15T07:10:03;100848.58;;;13.75;63.02
59873;BME280;50750;51.636;4.948;2022-11-15T07:12:30;100849.77;;;13.76;62.85
59873;BME280;50750;51.636;4.948;2022-11-15T07:14:57;100846.58;;;13.77;62.87
59873;BME280;50750;51.636;4.948;2022-11-15T07:17:23;100845.83;;;13.78;62.87
59873;BME280;50750;51.636;4.948;2022-11-15T07:19:50;100842.31;;;13.78;62.86
59873;BME280;50750;51.636;4.948;2022-11-15T07:22:16;100846.86;;;13.79;62.86
59873;BME280;50750;51.636;4.948;2022-11-15T07:24:43;100847.18;;;13.79;62.74
59873;BME280;50750;51.636;4.948;2022-11-15T07:27:09;100845.27;;;13.79;62.81
59873;BME280;50750;51.636;4.948;2022-11-15T07:29:36;100848.58;;;13.79;62.80
59873;BME280;50750;51.636;4.948;2022-11-15T07:32:03;100850.54;;;13.79;62.81
59873;BME280;50750;51.636;4.948;2022-11-15T07:34:29;100849.67;;;13.79;62.75
59873;BME280;50750;51.636;4.948;2022-11-15T07:36:56;100848.80;;;13.78;62.73
59873;BME280;50750;51.636;4.948;2022-11-15T07:39:22;100847.94;;;13.78;62.83
59873;BME280;50750;51.636;4.948;2022-11-15T07:41:49;100849.36;;;13.78;62.69
59873;BME280;50750;51.636;4.948;2022-11-15T07:44:15;100848.88;;;13.77;62.79
59873;BME280;50750;51.636;4.948;2022-11-15T07:46:42;100851.55;;;13.76;62.75
59873;BME280;50750;51.636;4.948;2022-11-15T07:49:08;100857.02;;;13.75;62.78
59873;BME280;50750;51.636;4.948;2022-11-15T07:51:35;100855.79;;;13.75;62.70
59873;BME280;50750;51.636;4.948;2022-11-15T07:54:02;100855.64;;;13.75;62.84
59873;BME280;50750;51.636;4.948;2022-11-15T07:56:28;100854.61;;;13.74;62.89
59873;BME280;50750;51.636;4.948;2022-11-15T07:58:55;100855.31;;;13.74;62.89
59873;BME280;50750;51.636;4.948;2022-11-15T08:01:21;100858.45;;;13.75;62.85
59873;BME280;50750;51.636;4.948;2022-11-15T08:03:48;100853.84;;;13.76;62.80
59873;BME280;50750;51.636;4.948;2022-11-15T08:06:15;100843.06;;;13.77;62.74
59873;BME280;50750;51.636;4.948;2022-11-15T08:08:41;100842.33;;;13.77;62.83
59873;BME280;50750;51.636;4.948;2022-11-15T08:11:08;100840.02;;;13.78;62.87
59873;BME280;50750;51.636;4.948;2022-11-15T08:13:34;100837.73;;;13.78;62.72
59873;BME280;50750;51.636;4.948;2022-11-15T08:16:02;100836.11;;;13.79;62.81
59873;BME280;50750;51.636;4.948;2022-11-15T08:18:31;100833.64;;;13.79;62.70
59873;BME280;50750;51.636;4.948;2022-11-15T08:21:01;100827.14;;;13.79;62.74
59873;BME280;50750;51.636;4.948;2022-11-15T08:23:28;100827.67;;;13.79;62.79
59873;BME280;50750;51.636;4.948;2022-11-15T08:26:00;100827.14;;;13.79;62.73
59873;BME280;50750;51.636;4.948;2022-11-15T08:28:28;100826.09;;;13.79;62.92
59873;BME280;50750;51.636;4.948;2022-11-15T08:30:55;100822.59;;;13.78;62.85
59873;BME280;50750;51.636;4.948;2022-11-15T08:33:22;100824.35;;;13.78;62.80
59873;BME280;50750;51.636;4.948;2022-11-15T08:35:48;100820.30;;;13.78;62.82
59873;BME280;50750;51.636;4.948;2022-11-15T08:38:15;100819.27;;;13.78;62.81
59873;BME280;50750;51.636;4.948;2022-11-15T08:40:41;100817.36;;;13.77;62.84
59873;BME280;50750;51.636;4.948;2022-11-15T08:43:08;100806.99;;;13.77;62.89
59873;BME280;50750;51.636;4.948;2022-11-15T08:45:35;100809.98;;;13.77;62.89
59873;BME280;50750;51.636;4.948;2022-11-15T08:48:02;100801.70;;;13.77;62.89
59873;BME280;50750;51.636;4.948;2022-11-15T08:50:30;100793.73;;;13.78;62.85
59873;BME280;50750;51.636;4.948;2022-11-15T08:52:57;100793.95;;;13.81;62.79
59873;BME280;50750;51.636;4.948;2022-11-15T08:55:23;100790.17;;;13.82;62.77
59873;BME280;50750;51.636;4.948;2022-11-15T08:57:50;100792.23;;;13.84;62.79
59873;BME280;50750;51.636;4.948;2022-11-15T09:00:17;100789.35;;;13.85;62.80
59873;BME280;50750;51.636;4.948;2022-11-15T09:02:46;100787.04;;;13.86;62.69
59873;BME280;50750;51.636;4.948;2022-11-15T09:05:12;100781.73;;;13.87;62.70
59873;BME280;50750;51.636;4.948;2022-11-15T09:07:39;100783.63;;;13.87;62.74
59873;BME280;50750;51.636;4.948;2022-11-15T09:10:06;100789.77;;;13.88;62.66
59873;BME280;50750;51.636;4.948;2022-11-15T09:12:33;100790.48;;;13.88;62.65
59873;BME280;50750;51.636;4.948;2022-11-15T09:14:59;100789.25;;;13.88;62.62
59873;BME280;50750;51.636;4.948;2022-11-15T09:17:26;100783.08;;;13.88;62.55
59873;BME280;50750;51.636;4.948;2022-11-15T09:19:52;100780.11;;;13.87;62.53
59873;BME280;50750;51.636;4.948;2022-11-15T09:22:19;100777.15;;;13.87;62.50
59873;BME280;50750;51.636;4.948;2022-11-15T09:24:45;100781.55;;;13.87;62.54
59873;BME280;50750;51.636;4.948;2022-11-15T09:27:12;100782.61;;;13.87;62.54
59873;BME280;50750;51.636;4.948;2022-11-15T09:29:39;100776.13;;;13.86;62.54
59873;BME280;50750;51.636;4.948;2022-11-15T09:32:06;100780.91;;;13.85;62.49
59873;BME280;50750;51.636;4.948;2022-11-15T09:34:32;100781.09;;;13.85;62.44
59873;BME280;50750;51.636;4.948;2022-11-15T09:36:59;100782.02;;;13.84;62.54
59873;BME280;50750;51.636;4.948;2022-11-15T09:39:25;100780.27;;;13.84;62.63
59873;BME280;50750;51.636;4.948;2022-11-15T09:42:08;100780.28;;;13.83;62.59
59873;BME280;50750;51.636;4.948;2022-11-15T09:47:46;100777.83;;;13.83;62.57
59873;BME280;50750;51.636;4.948;2022-11-15T09:50:21;100774.24;;;13.85;62.56
59873;BME280;50750;51.636;4.948;2022-11-15T09:52:55;100771.90;;;13.85;62.58
59873;BME280;50750;51.636;4.948;2022-11-15T09:55:29;100769.23;;;13.87;62.54
59873;BME280;50750;51.636;4.948;2022-11-15T09:58:08;100766.89;;;13.87;62.67
59873;BME280;50750;51.636;4.948;2022-11-15T10:00:40;100769.71;;;13.87;62.47
59873;BME280;50750;51.636;4.948;2022-11-15T10:03:12;100773.17;;;13.89;62.49
59873;BME280;50750;51.636;4.948;2022-11-15T10:05:45;100770.18;;;13.89;62.43
59873;BME280;50750;51.636;4.948;2022-11-15T10:10:45;100757.11;;;13.90;62.52
59873;BME280;50750;51.636;4.948;2022-11-15T10:13:24;100747.63;;;13.89;62.47
59873;BME280;50750;51.636;4.948;2022-11-15T10:15:53;100744.11;;;13.89;62.41
59873;BME280;50750;51.636;4.948;2022-11-15T10:21:19;100744.48;;;13.89;62.44
59873;BME280;50750;51.636;4.948;2022-11-15T10:23:46;100736.05;;;13.89;62.47
59873;BME280;50750;51.636;4.948;2022-11-15T10:26:16;100733.95;;;13.88;62.43
59873;BME280;50750;51.636;4.948;2022-11-15T10:28:43;100728.86;;;13.88;62.49
59873;BME280;50750;51.636;4.948;2022-11-15T10:31:27;100728.18;;;13.87;62.50
59873;BME280;50750;51.636;4.948;2022-11-15T10:34:19;100725.55;;;13.87;62.56
59873;BME280;50750;51.636;4.948;2022-11-15T10:36:57;100726.95;;;13.87;62.49
59873;BME280;50750;51.636;4.948;2022-11-15T10:39:25;100729.82;;;13.86;62.56
59873;BME280;50750;51.636;4.948;2022-11-15T10:41:52;100726.84;;;13.86;62.59
59873;BME280;50750;51.636;4.948;2022-11-15T10:49:28;100715.63;;;13.89;62.48
59873;BME280;50750;51.636;4.948;2022-11-15T10:52:12;100708.04;;;13.89;62.52
59873;BME280;50750;51.636;4.948;2022-11-15T10:54:43;100701.82;;;13.90;62.55
59873;BME280;50750;51.636;4.948;2022-11-15T10:57:22;100698.26;;;13.91;62.62
59873;BME280;50750;51.636;4.948;2022-11-15T10:59:55;100694.71;;;13.91;62.49
59873;BME280;50750;51.636;4.948;2022-11-15T11:02:30;100687.66;;;13.91;62.49
59873;BME280;50750;51.636;4.948;2022-11-15T11:04:59;100682.73;;;13.92;62.50
59873;BME280;50750;51.636;4.948;2022-11-15T11:07:30;100678.30;;;13.92;62.46
59873;BME280;50750;51.636;4.948;2022-11-15T11:12:30;100675.84;;;13.92;62.46
59873;BME280;50750;51.636;4.948;2022-11-15T11:14:59;100669.36;;;13.91;62.56
59873;BME280;50750;51.636;4.948;2022-11-15T11:17:50;100663.37;;;13.91;62.51
59873;BME280;50750;51.636;4.948;2022-11-15T11:20:38;100660.89;;;13.92;62.51
59873;BME280;50750;51.636;4.948;2022-11-15T11:23:34;100647.70;;;13.92;62.57
59873;BME280;50750;51.636;4.948;2022-11-15T11:29:34;100635.80;;;13.90;62.56
59873;BME280;50750;51.636;4.948;2022-11-15T11:35:02;100627.70;;;13.90;62.54
59873;BME280;50750;51.636;4.948;2022-11-15T11:51:15;100585.91;;;13.88;62.67
59873;BME280;50750;51.636;4.948;2022-11-15T11:53:55;100585.54;;;13.89;62.71
59873;BME280;50750;51.636;4.948;2022-11-15T11:56:28;100576.27;;;13.91;62.67
59873;BME280;50750;51.636;4.948;2022-11-15T11:59:02;100573.75;;;13.92;62.62
59873;BME280;50750;51.636;4.948;2022-11-15T12:01:39;100569.45;;;13.94;62.77
59873;BME280;50750;51.636;4.948;2022-11-15T12:06:58;100565.64;;;13.96;62.64
59873;BME280;50750;51.636;4.948;2022-11-15T12:09:41;100559.09;;;13.97;62.61
59873;BME280;50750;51.636;4.948;2022-11-15T12:14:46;100553.23;;;13.98;62.62
59873;BME280;50750;51.636;4.948;2022-11-15T12:17:16;100546.66;;;13.99;62.60
59873;BME280;50750;51.636;4.948;2022-11-15T12:19:45;100545.61;;;13.99;62.61
59873;BME280;50750;51.636;4.948;2022-11-15T12:22:33;100543.98;;;14.00;62.57
59873;BME280;50750;51.636;4.948;2022-11-15T12:28:15;100540.06;;;14.01;62.59
59873;BME280;50750;51.636;4.948;2022-11-15T12:30:51;100537.59;;;14.01;62.66
59873;BME280;50750;51.636;4.948;2022-11-15T12:33:43;100531.80;;;14.01;62.55
59873;BME280;50750;51.636;4.948;2022-11-15T12:38:58;100526.84;;;14.01;62.64
59873;BME280;50750;51.636;4.948;2022-11-15T12:41:27;100523.48;;;14.02;62.50
59873;BME280;50750;51.636;4.948;2022-11-15T12:43:55;100516.64;;;14.01;62.59
59873;BME280;50750;51.636;4.948;2022-11-15T12:46:33;100510.27;;;14.02;62.57
59873;BME280;50750;51.636;4.948;2022-11-15T13:00:05;100483.01;;;14.01;62.53
59873;BME280;50750;51.636;4.948;2022-11-15T13:02:44;100478.81;;;14.01;62.54
59873;BME280;50750;51.636;4.948;2022-11-15T13:10:30;100464.95;;;14.04;62.56
59873;BME280;50750;51.636;4.948;2022-11-15T13:13:03;100464.33;;;14.05;62.47
59873;BME280;50750;51.636;4.948;2022-11-15T13:15:31;100462.02;;;14.06;62.52
59873;BME280;50750;51.636;4.948;2022-11-15T13:18:25;100457.76;;;14.06;62.37
59873;BME280;50750;51.636;4.948;2022-11-15T13:20:53;100445.38;;;14.08;62.44
59873;BME280;50750;51.636;4.948;2022-11-15T13:23:21;100441.13;;;14.08;62.48
59873;BME280;50750;51.636;4.948;2022-11-15T13:25:56;100438.98;;;14.09;62.36
59873;BME280;50750;51.636;4.948;2022-11-15T13:31:03;100433.12;;;14.09;
59873;BME280;50750;51.636;4.948;2022-11-15T13:33:39;100426.28;;;14.09;62.42
59873;BME280;50750;51.636;4.948;2022-11-15T13:36:13;100422.03;;;14.09;62.45
59873;BME280;50750;51.636;4.948;2022-11-15T13:38:41;100416.40;;;14.09;62.39
59873;BME280;50750;51.636;4.948;2022-11-15T13:41:19;100408.66;;;14.09;62.43
59873;BME280;50750;51.636;4.948;2022-11-15T13:43:51;100403.92;;;14.09;62.36
59873;BME280;50750;51.636;4.948;2022-11-15T13:46:30;100397.04;;;14.09;62.36
59873;BME280;50750;51.636;4.948;2022-11-15T13:49:03;100390.72;;;14.09;62.50
59873;BME280;50750;51.636;4.948;2022-11-15T13:56:44;100379.48;;;14.08;62.55
59873;BME280;50750;51.636;4.948;2022-11-15T13:59:26;100375.98;;;14.08;62.43
59873;BME280;50750;51.636;4.948;2022-11-15T14:01:55;100368.07;;;14.08;62.52
59873;BME280;50750;51.636;4.948;2022-11-15T14:04:25;100363.98;;;14.09;62.52
59873;BME280;50750;51.636;4.948;2022-11-15T14:06:54;100364.84;;;14.09;62.47
59873;BME280;50750;51.636;4.948;2022-11-15T14:12:02;100351.34;;;14.11;62.57
59873;BME280;50750;51.636;4.948;2022-11-15T14:14:29;100346.19;;;14.12;62.57
59873;BME280;50750;51.636;4.948;2022-11-15T14:17:00;100336.10;;;14.13;62.46
59873;BME280;50750;51.636;4.948;2022-11-15T14:24:40;100319.41;;;14.15;62.42
59873;BME280;50750;51.636;4.948;2022-11-15T14:27:40;100314.98;;;14.16;62.34
59873;BME280;50750;51.636;4.948;2022-11-15T14:30:13;100309.12;;;14.17;62.38
59873;BME280;50750;51.636;4.948;2022-11-15T14:32:48;100305.23;;;14.17;62.37
59873;BME280;50750;51.636;4.948;2022-11-15T14:35:19;100304.49;;;14.18;62.37
59873;BME280;50750;51.636;4.948;2022-11-15T14:37:46;100302.53;;;14.19;62.32
59873;BME280;50750;51.636;4.948;2022-11-15T14:40:16;100301.66;;;14.18;62.40
59873;BME280;50750;51.636;4.948;2022-11-15T14:42:45;100293.40;;;14.18;62.33
59873;BME280;50750;51.636;4.948;2022-11-15T14:45:17;100288.83;;;14.18;62.33
59873;BME280;50750;51.636;4.948;2022-11-15T14:47:44;100287.94;;;14.18;62.46
59873;BME280;50750;51.636;4.948;2022-11-15T14:50:17;100280.20;;;14.18;62.37
59873;BME280;50750;51.636;4.948;2022-11-15T14:52:45;100276.86;;;14.18;62.34
59873;BME280;50750;51.636;4.948;2022-11-15T14:55:39;100270.39;;;14.17;62.48
59873;BME280;50750;51.636;4.948;2022-11-15T14:58:07;100271.83;;;14.17;62.43
59873;BME280;50750;51.636;4.948;2022-11-15T15:00:39;100268.65;;;14.17;62.40
59873;BME280;50750;51.636;4.948;2022-11-15T15:03:06;100262.52;;;14.16;62.47